createdAt,value
2018-02-19T00:02:01.908Z,22.10
2018-02-19T00:04:29.952Z,21.80
2018-02-19T00:06:57.397Z,20.73
2018-02-19T00:09:24.858Z,22.57
2018-02-19T00:11:52.703Z,22.70
2018-02-19T00:14:20.191Z,22.73
2018-02-19T00:16:47.799Z,22.05
2018-02-19T00:19:15.699Z,23.25
2018-02-19T00:21:43.162Z,23.47
2018-02-19T00:24:10.984Z,23.40
2018-02-19T00:26:38.508Z,25.47
2018-02-19T00:29:05.945Z,23.13
2018-02-19T00:31:33.455Z,25.67
2018-02-19T00:34:00.939Z,24.70
2018-02-19T00:36:28.535Z,24.37
2018-02-19T00:38:56.053Z,26.00
2018-02-19T00:41:23.578Z,27.37
2018-02-19T00:43:51.176Z,32.73
2018-02-19T00:46:18.814Z,26.90
2018-02-19T00:48:46.293Z,28.10
2018-02-19T00:51:13.759Z,27.52
2018-02-19T00:53:41.207Z,24.40
2018-02-19T00:56:08.887Z,26.48
2018-02-19T00:58:36.360Z,26.07
2018-02-19T01:01:04.909Z,28.33
2018-02-19T01:03:32.473Z,25.23
2018-02-19T01:05:59.938Z,25.67
2018-02-19T01:08:27.435Z,27.03
2018-02-19T01:10:54.886Z,22.43
2018-02-19T01:13:22.353Z,23.70
2018-02-19T01:15:50.002Z,25.85
2018-02-19T01:18:17.856Z,26.17
2018-02-19T01:20:45.477Z,25.87
2018-02-19T01:23:13.199Z,24.80
2018-02-19T01:25:40.774Z,27.40
2018-02-19T01:28:09.189Z,25.07
2018-02-19T01:30:37.255Z,28.35
2018-02-19T01:33:04.876Z,27.47
2018-02-19T01:35:32.376Z,25.00
2018-02-19T01:37:59.838Z,28.60
2018-02-19T01:40:27.386Z,25.13
2018-02-19T01:42:54.950Z,26.20
2018-02-19T01:45:23.426Z,30.07
2018-02-19T01:47:51.038Z,26.47
2018-02-19T01:50:18.541Z,26.80
2018-02-19T01:52:46.099Z,25.30
2018-02-19T01:55:13.659Z,24.45
2018-02-19T01:57:41.172Z,26.67
2018-02-19T02:00:31.618Z,27.80
2018-02-19T02:02:59.123Z,26.70
2018-02-19T02:05:26.618Z,25.07
2018-02-19T02:07:54.299Z,29.35
2018-02-19T02:10:21.778Z,24.10
2018-02-19T02:12:49.438Z,25.23
2018-02-19T02:15:18.137Z,26.60
2018-02-19T02:17:45.616Z,26.40
2018-02-19T02:20:13.229Z,25.42
2018-02-19T02:22:40.805Z,30.45
2018-02-19T02:25:08.261Z,26.43
2018-02-19T02:27:35.791Z,23.73
2018-02-19T02:30:03.265Z,23.33
2018-02-19T02:32:30.726Z,27.10
2018-02-19T02:34:58.242Z,26.90
2018-02-19T02:37:25.708Z,24.27
2018-02-19T02:39:53.430Z,29.73
2018-02-19T02:42:20.927Z,25.43
2018-02-19T02:44:48.353Z,26.70
2018-02-19T02:47:15.905Z,25.77
2018-02-19T02:49:43.410Z,25.12
2018-02-19T02:52:10.941Z,24.02
2018-02-19T02:54:38.646Z,26.02
2018-02-19T02:57:06.556Z,27.23
2018-02-19T02:59:34.039Z,24.23
2018-02-19T03:02:01.837Z,21.33
2018-02-19T03:04:29.359Z,24.48
2018-02-19T03:06:56.796Z,25.57
2018-02-19T03:09:24.244Z,23.67
2018-02-19T03:11:51.820Z,26.03
2018-02-19T03:14:19.294Z,25.13
2018-02-19T03:16:46.731Z,23.60
2018-02-19T03:19:14.162Z,20.77
2018-02-19T03:21:41.622Z,24.00
2018-02-19T03:24:09.062Z,23.90
2018-02-19T03:26:36.737Z,24.80
2018-02-19T03:29:04.281Z,23.65
2018-02-19T03:31:31.740Z,24.20
2018-02-19T03:33:59.206Z,23.10
2018-02-19T03:36:26.780Z,21.67
2018-02-19T03:38:54.254Z,23.73
2018-02-19T03:41:22.017Z,24.37
2018-02-19T03:43:49.671Z,23.90
2018-02-19T03:46:17.206Z,24.08
2018-02-19T03:48:44.659Z,29.40
2018-02-19T03:51:12.107Z,25.83
2018-02-19T03:53:39.603Z,26.07
2018-02-19T03:56:07.039Z,26.20
2018-02-19T03:58:34.480Z,28.43
2018-02-19T04:01:01.921Z,25.10
2018-02-19T04:03:29.370Z,28.57
2018-02-19T04:05:56.971Z,27.80
2018-02-19T04:08:24.642Z,26.60
2018-02-19T04:10:52.109Z,27.50
2018-02-19T04:13:19.658Z,26.47
2018-02-19T04:15:47.177Z,29.73
2018-02-19T04:18:15.406Z,30.03
2018-02-19T04:20:42.840Z,32.23
2018-02-19T04:23:10.423Z,27.40
2018-02-19T04:25:37.862Z,28.20
2018-02-19T04:28:05.299Z,28.83
2018-02-19T04:30:32.759Z,31.07
2018-02-19T04:33:00.226Z,31.83
2018-02-19T04:35:27.675Z,29.80
2018-02-19T04:37:55.110Z,29.80
2018-02-19T04:40:22.600Z,27.23
2018-02-19T04:43:00.721Z,30.20
2018-02-19T04:45:31.144Z,32.70
2018-02-19T04:47:58.744Z,31.00
2018-02-19T04:50:26.555Z,26.45
2018-02-19T04:52:53.998Z,30.30
2018-02-19T04:55:21.491Z,33.85
2018-02-19T04:57:48.927Z,28.13
2018-02-19T05:00:16.395Z,26.37
2018-02-19T05:02:43.822Z,31.27
2018-02-19T05:05:11.333Z,32.23
2018-02-19T05:07:38.893Z,32.70
2018-02-19T05:10:06.338Z,28.97
2018-02-19T05:12:33.791Z,30.97
2018-02-19T05:15:01.241Z,31.07
2018-02-19T05:17:28.678Z,49.73
2018-02-19T05:19:56.681Z,31.83
2018-02-19T05:22:24.199Z,32.93
2018-02-19T05:24:51.661Z,30.80
2018-02-19T05:27:19.154Z,28.63
2018-02-19T05:29:46.652Z,31.15
2018-02-19T05:32:14.098Z,32.57
2018-02-19T05:34:41.555Z,30.95
2018-02-19T05:37:09.130Z,31.80
2018-02-19T05:39:36.784Z,30.40
2018-02-19T05:42:04.252Z,29.80
2018-02-19T05:44:31.707Z,29.52
2018-02-19T05:46:59.220Z,27.90
2018-02-19T05:49:26.871Z,32.45
2018-02-19T05:51:54.492Z,34.10
2018-02-19T05:54:21.924Z,28.13
2018-02-19T05:56:49.746Z,31.00
2018-02-19T05:59:17.450Z,33.60
2018-02-19T06:01:44.906Z,29.50
2018-02-19T06:04:12.366Z,32.60
2018-02-19T06:06:39.897Z,32.27
2018-02-19T06:09:07.326Z,26.80
2018-02-19T06:11:35.553Z,29.00
2018-02-19T06:14:03.027Z,31.33
2018-02-19T06:16:30.489Z,29.07
2018-02-19T06:18:57.928Z,31.70
2018-02-19T06:21:25.585Z,30.73
2018-02-19T06:23:53.037Z,28.40
2018-02-19T06:26:20.501Z,29.43
2018-02-19T06:28:47.985Z,33.65
2018-02-19T06:31:15.421Z,33.70
2018-02-19T06:33:43.011Z,35.13
2018-02-19T06:36:10.453Z,33.50
2018-02-19T06:38:37.897Z,33.50
2018-02-19T06:41:05.333Z,31.70
2018-02-19T06:43:32.802Z,31.20
2018-02-19T06:46:00.262Z,31.00
2018-02-19T06:48:27.709Z,29.20
2018-02-19T06:50:55.195Z,30.73
2018-02-19T06:53:22.720Z,33.53
2018-02-19T06:55:50.499Z,30.97
2018-02-19T06:58:17.956Z,30.30
2018-02-19T07:00:45.392Z,35.30
2018-02-19T07:03:12.837Z,31.37
2018-02-19T07:05:40.330Z,33.13
2018-02-19T07:08:07.790Z,34.00
2018-02-19T07:10:35.257Z,31.57
2018-02-19T07:13:02.745Z,29.27
2018-02-19T07:15:30.173Z,29.40
2018-02-19T07:17:57.602Z,32.63
2018-02-19T07:33:16.095Z,33.07
2018-02-19T07:35:43.549Z,28.33
2018-02-19T07:38:10.980Z,28.23
2018-02-19T07:40:38.482Z,32.67
2018-02-19T07:43:06.012Z,30.87
2018-02-19T07:45:33.592Z,31.17
2018-02-19T07:48:01.033Z,33.13
2018-02-19T07:50:28.501Z,28.17
2018-02-19T07:52:56.077Z,30.93
2018-02-19T07:55:23.516Z,28.10
2018-02-19T07:57:50.993Z,32.13
2018-02-19T08:00:18.814Z,30.17
2018-02-19T08:02:46.492Z,27.20
2018-02-19T08:05:13.947Z,30.13
2018-02-19T08:07:41.470Z,26.27
2018-02-19T08:10:09.083Z,26.07
2018-02-19T08:12:36.561Z,23.83
2018-02-19T08:15:03.996Z,27.90
2018-02-19T08:17:31.504Z,25.70
2018-02-19T08:19:58.974Z,25.27
2018-02-19T08:22:26.441Z,28.27
2018-02-19T08:24:54.059Z,28.73
2018-02-19T08:27:21.529Z,26.80
2018-02-19T08:29:49.014Z,26.90
2018-02-19T08:32:16.470Z,27.52
2018-02-19T08:34:43.922Z,27.50
2018-02-19T08:37:11.386Z,24.40
2018-02-19T08:39:38.859Z,26.97
2018-02-19T08:42:06.317Z,28.23
2018-02-19T08:44:33.836Z,29.47
2018-02-19T08:47:01.522Z,25.97
2018-02-19T08:49:29.037Z,28.47
2018-02-19T08:51:56.489Z,27.37
2018-02-19T08:54:23.940Z,24.73
2018-02-19T08:56:51.380Z,22.73
2018-02-19T08:59:18.841Z,24.10
2018-02-19T09:01:46.286Z,24.63
2018-02-19T09:04:13.778Z,24.63
2018-02-19T09:06:41.926Z,25.60
2018-02-19T09:09:09.385Z,24.20
2018-02-19T09:11:36.837Z,25.83
2018-02-19T09:14:04.475Z,25.30
2018-02-19T09:16:31.982Z,27.63
2018-02-19T09:18:59.647Z,24.20
2018-02-19T09:21:27.848Z,22.87
2018-02-19T09:23:55.318Z,26.20
2018-02-19T09:26:22.802Z,21.77
2018-02-19T09:28:50.230Z,23.70
2018-02-19T09:31:17.716Z,21.70
2018-02-19T09:33:45.188Z,22.65
2018-02-19T09:36:12.957Z,21.07
2018-02-19T09:38:40.424Z,22.00
2018-02-19T09:41:08.067Z,21.37
2018-02-19T09:43:35.503Z,22.75
2018-02-19T09:46:02.953Z,22.03
2018-02-19T09:48:30.389Z,20.10
2018-02-19T09:50:58.004Z,21.33
2018-02-19T09:53:25.551Z,23.70
2018-02-19T09:55:53.112Z,25.33
2018-02-19T09:58:20.597Z,24.20
2018-02-19T10:00:48.059Z,20.70
2018-02-19T10:03:15.498Z,21.80
2018-02-19T10:05:43.121Z,20.95
2018-02-19T10:08:10.525Z,21.17
2018-02-19T10:10:37.974Z,21.30
2018-02-19T10:13:05.674Z,19.63
2018-02-19T10:15:33.258Z,20.04
2018-02-19T10:18:00.789Z,19.73
2018-02-19T10:20:28.241Z,20.80
2018-02-19T10:22:55.706Z,21.20
2018-02-19T10:25:23.156Z,19.70
2018-02-19T10:27:50.587Z,20.47
2018-02-19T10:30:18.119Z,21.55
2018-02-19T10:32:45.549Z,20.70
2018-02-19T10:35:13.012Z,18.73
2018-02-19T10:37:40.446Z,19.87
2018-02-19T10:40:13.753Z,19.87
2018-02-19T10:42:41.210Z,18.30
2018-02-19T10:45:08.664Z,19.33
2018-02-19T10:47:37.125Z,20.57
2018-02-19T10:50:04.580Z,20.43
2018-02-19T10:52:32.038Z,21.93
2018-02-19T10:54:59.472Z,18.90
2018-02-19T10:57:26.925Z,19.00
2018-02-19T10:59:54.361Z,18.90
2018-02-19T11:02:21.861Z,18.17
2018-02-19T11:04:49.366Z,19.77
2018-02-19T11:07:16.886Z,21.23
2018-02-19T11:09:44.441Z,21.87
2018-02-19T11:12:12.105Z,23.00
2018-02-19T11:14:39.552Z,19.60
2018-02-19T11:17:07.022Z,20.83
2018-02-19T11:19:34.785Z,20.90
2018-02-19T11:22:02.277Z,21.67
2018-02-19T11:24:29.911Z,19.50
2018-02-19T11:26:57.429Z,23.07
2018-02-19T11:29:24.885Z,18.23
2018-02-19T11:31:52.512Z,20.27
2018-02-19T11:34:20.394Z,19.80
2018-02-19T11:36:47.872Z,20.80
2018-02-19T11:39:15.507Z,21.58
2018-02-19T11:41:42.954Z,21.17
2018-02-19T11:44:10.407Z,23.67
2018-02-19T11:46:38.225Z,22.23
2018-02-19T11:49:05.715Z,20.60
2018-02-19T11:51:33.169Z,21.73
2018-02-19T11:54:00.609Z,22.73
2018-02-19T11:56:28.804Z,22.08
2018-02-19T11:58:56.291Z,19.50
2018-02-19T12:01:23.766Z,20.90
2018-02-19T12:03:51.222Z,23.17
2018-02-19T12:06:18.685Z,20.83
2018-02-19T12:08:46.133Z,20.43
2018-02-19T12:11:13.693Z,22.20
2018-02-19T12:13:41.168Z,20.37
2018-02-19T12:16:08.617Z,26.45
2018-02-19T12:18:36.081Z,22.63
2018-02-19T12:21:03.530Z,23.73
2018-02-19T12:23:31.087Z,20.63
2018-02-19T12:25:58.821Z,25.02
2018-02-19T12:28:27.042Z,20.13
2018-02-19T12:30:54.686Z,23.43
2018-02-19T12:33:22.140Z,24.33
2018-02-19T12:35:49.663Z,24.20
2018-02-19T12:38:17.162Z,23.87
2018-02-19T12:40:44.719Z,21.30
2018-02-19T12:43:12.193Z,21.83
2018-02-19T12:45:39.632Z,22.87
2018-02-19T12:48:07.082Z,20.60
2018-02-19T12:50:34.754Z,20.17
2018-02-19T12:53:02.232Z,21.77
2018-02-19T12:55:31.113Z,23.82
2018-02-19T12:57:58.935Z,21.30
2018-02-19T13:00:26.461Z,22.97
2018-02-19T13:02:54.054Z,24.50
2018-02-19T13:05:21.557Z,24.33
2018-02-19T13:07:49.002Z,25.17
2018-02-19T13:10:16.442Z,20.30
2018-02-19T13:12:43.899Z,23.60
2018-02-19T13:15:11.350Z,23.30
2018-02-19T13:17:38.828Z,23.63
2018-02-19T13:20:07.679Z,24.30
2018-02-19T13:22:35.203Z,24.67
2018-02-19T13:25:02.845Z,23.57
2018-02-19T13:27:30.429Z,22.00
2018-02-19T13:29:58.111Z,22.70
2018-02-19T13:32:25.640Z,24.30
2018-02-19T13:34:53.069Z,23.37
2018-02-19T13:37:20.707Z,27.57
2018-02-19T13:39:48.222Z,25.73
2018-02-19T13:42:16.050Z,21.23
2018-02-19T13:44:43.517Z,17.33
2018-02-19T13:47:10.971Z,20.52
2018-02-19T13:49:38.453Z,17.80
2018-02-19T13:52:05.894Z,18.20
2018-02-19T13:54:33.390Z,19.40
2018-02-19T13:57:00.856Z,17.70
2018-02-19T13:59:29.254Z,16.70
2018-02-19T14:01:56.705Z,17.73
2018-02-19T14:04:24.185Z,17.10
2018-02-19T14:06:51.629Z,18.17
2018-02-19T14:09:19.194Z,16.77
2018-02-19T14:11:47.061Z,18.53
2018-02-19T14:14:14.926Z,22.35
2018-02-19T14:16:43.361Z,26.23
2018-02-19T14:19:16.621Z,24.23
2018-02-19T14:21:47.343Z,21.70
2018-02-19T14:24:19.656Z,22.00
2018-02-19T14:26:49.522Z,24.10
2018-02-19T14:29:23.904Z,24.85
2018-02-19T14:31:52.288Z,23.40
2018-02-19T14:34:20.334Z,23.63
2018-02-19T14:36:47.822Z,25.50
2018-02-19T14:39:16.176Z,22.93
2018-02-19T14:41:43.657Z,27.73
2018-02-19T14:44:11.099Z,24.60
2018-02-19T14:46:38.607Z,22.63
2018-02-19T14:49:06.057Z,26.10
2018-02-19T14:51:33.590Z,24.97
2018-02-19T14:54:01.115Z,22.93
2018-02-19T14:56:29.504Z,25.27
2018-02-19T14:58:56.969Z,24.23
2018-02-19T15:01:24.517Z,22.83
2018-02-19T15:03:52.065Z,23.30
2018-02-19T15:06:19.511Z,26.00
2018-02-19T15:08:51.957Z,26.03
2018-02-19T15:11:25.190Z,26.10
2018-02-19T15:13:53.328Z,23.30
2018-02-19T15:16:20.771Z,24.33
2018-02-19T15:18:48.278Z,24.53
2018-02-19T15:21:15.745Z,26.87
2018-02-19T15:23:43.218Z,24.92
2018-02-19T15:38:59.318Z,26.20
2018-02-19T15:41:26.765Z,26.00
2018-02-19T15:43:54.629Z,24.87
2018-02-19T15:46:22.477Z,28.13
2018-02-19T15:48:49.907Z,23.63
2018-02-19T15:51:17.533Z,24.83
2018-02-19T15:53:44.987Z,26.70
2018-02-19T15:56:12.658Z,25.75
2018-02-19T15:58:40.229Z,23.20
2018-02-19T16:01:07.973Z,23.07
2018-02-19T16:03:35.636Z,22.45
2018-02-19T16:06:03.117Z,25.80
2018-02-19T16:08:30.578Z,24.83
2018-02-19T16:10:58.037Z,23.40
2018-02-19T16:13:25.492Z,22.33
2018-02-19T16:15:53.005Z,24.67
2018-02-19T16:18:20.709Z,23.47
2018-02-19T16:20:48.293Z,25.20
2018-02-19T16:23:15.770Z,23.45
2018-02-19T16:25:43.210Z,25.83
2018-02-19T16:28:11.647Z,23.75
2018-02-19T16:30:40.802Z,25.27
2018-02-19T16:33:08.298Z,24.55
2018-02-19T16:35:35.898Z,27.80
2018-02-19T16:38:03.940Z,27.83
2018-02-19T16:40:31.389Z,23.63
2018-02-19T16:42:59.517Z,24.95
2018-02-19T16:45:30.402Z,29.13
2018-02-19T16:48:00.284Z,25.23
2018-02-19T16:50:27.898Z,25.40
2018-02-19T16:52:55.327Z,25.73
2018-02-19T16:55:22.879Z,32.58
2018-02-19T16:57:50.340Z,29.63
2018-02-19T17:00:17.849Z,27.62
2018-02-19T17:02:45.376Z,27.87
2018-02-19T17:05:13.603Z,26.43
2018-02-19T17:07:41.250Z,24.77
2018-02-19T17:10:09.998Z,25.58
2018-02-19T17:12:38.316Z,26.42
2018-02-19T17:15:05.912Z,27.72
2018-02-19T17:17:33.523Z,23.77
2018-02-19T17:20:01.674Z,31.83
2018-02-19T17:22:30.150Z,27.13
2018-02-19T17:24:57.642Z,39.80
2018-02-19T17:27:25.099Z,32.27
2018-02-19T17:29:52.540Z,39.23
2018-02-19T17:32:20.001Z,25.17
2018-02-19T17:34:50.841Z,27.37
2018-02-19T17:37:18.298Z,25.10
2018-02-19T17:39:46.738Z,27.87
2018-02-19T17:42:14.184Z,22.20
2018-02-19T17:44:41.647Z,21.97
2018-02-19T17:47:09.100Z,24.60
2018-02-19T17:49:36.554Z,26.63
2018-02-19T17:52:04.009Z,23.60
2018-02-19T17:54:31.466Z,23.47
2018-02-19T17:56:59.042Z,23.33
2018-02-19T17:59:26.543Z,25.40
2018-02-19T18:01:53.984Z,22.93
2018-02-19T18:04:21.458Z,22.03
2018-02-19T18:06:48.923Z,24.43
2018-02-19T18:09:16.625Z,22.33
2018-02-19T18:11:44.166Z,22.87
2018-02-19T18:14:11.623Z,26.37
2018-02-19T18:16:39.054Z,23.93
2018-02-19T18:19:06.498Z,24.65
2018-02-19T18:21:34.018Z,24.27
2018-02-19T18:24:01.464Z,23.70
2018-02-19T18:26:28.955Z,24.73
2018-02-19T18:28:56.389Z,23.93
2018-02-19T18:31:23.845Z,24.33
2018-02-19T18:33:51.308Z,22.52
2018-02-19T18:36:38.101Z,23.70
2018-02-19T18:39:05.680Z,23.33
2018-02-19T18:41:33.148Z,21.10
2018-02-19T18:44:01.442Z,26.45
2018-02-19T18:46:28.873Z,26.20
2018-02-19T18:48:56.325Z,24.92
2018-02-19T18:51:23.780Z,25.43
2018-02-19T18:53:51.278Z,23.00
2018-02-19T18:56:18.708Z,24.47
2018-02-19T18:58:46.211Z,20.12
2018-02-19T19:01:13.667Z,21.23
2018-02-19T19:03:41.122Z,23.17
2018-02-19T19:06:08.565Z,25.90
2018-02-19T19:08:47.813Z,22.00
2018-02-19T19:11:15.267Z,22.47
2018-02-19T19:13:42.904Z,23.60
2018-02-19T19:16:10.861Z,24.03
2018-02-19T19:18:38.293Z,21.83
2018-02-19T19:21:05.776Z,25.65
2018-02-19T19:23:33.237Z,31.53
2018-02-19T19:26:00.770Z,28.80
2018-02-19T19:28:28.431Z,25.43
2018-02-19T19:30:55.900Z,25.33
2018-02-19T19:33:23.381Z,24.97
2018-02-19T19:35:50.826Z,25.77
2018-02-19T19:38:18.274Z,27.02
2018-02-19T19:40:45.800Z,23.75
2018-02-19T19:43:13.337Z,23.23
2018-02-19T19:45:40.795Z,27.13
2018-02-19T19:48:08.654Z,26.57
2018-02-19T19:50:37.056Z,24.50
2018-02-19T19:53:04.518Z,27.60
2018-02-19T19:55:32.009Z,27.53
2018-02-19T19:57:59.541Z,25.10
2018-02-19T20:00:27.062Z,27.77
2018-02-19T20:02:54.559Z,27.30
2018-02-19T20:05:21.995Z,27.20
2018-02-19T20:07:49.476Z,24.07
2018-02-19T20:10:16.938Z,23.33
2018-02-19T20:12:44.417Z,20.77
2018-02-19T20:15:11.934Z,19.45
2018-02-19T20:17:40.746Z,21.77
2018-02-19T20:20:08.287Z,20.27
2018-02-19T20:22:35.757Z,20.53
2018-02-19T20:25:03.206Z,19.27
2018-02-19T20:27:31.139Z,19.07
2018-02-19T20:29:58.601Z,25.30
2018-02-19T20:32:26.034Z,20.13
2018-02-19T20:34:53.743Z,21.60
2018-02-19T20:37:21.201Z,19.93
2018-02-19T20:39:50.071Z,24.37
2018-02-19T20:42:17.927Z,24.03
2018-02-19T20:44:45.362Z,21.03
2018-02-19T20:47:12.817Z,23.77
2018-02-19T20:49:40.285Z,22.50
2018-02-19T20:52:07.758Z,20.67
2018-02-19T20:54:35.213Z,22.03
2018-02-19T20:57:02.641Z,21.90
2018-02-19T20:59:30.230Z,21.30
2018-02-19T21:01:57.661Z,20.10
2018-02-19T21:04:25.197Z,21.30
2018-02-19T21:06:52.662Z,22.57
2018-02-19T21:09:20.096Z,23.90
2018-02-19T21:11:47.629Z,21.20
2018-02-19T21:14:15.104Z,21.90
2018-02-19T21:16:42.696Z,21.90
2018-02-19T21:19:10.142Z,20.53
2018-02-19T21:21:38.481Z,21.50
2018-02-19T21:24:05.965Z,22.90
2018-02-19T21:26:33.406Z,21.60
2018-02-19T21:29:00.887Z,21.20
2018-02-19T21:31:28.344Z,25.13
2018-02-19T21:33:55.813Z,28.30
2018-02-19T21:36:23.243Z,29.10
2018-02-19T21:38:50.693Z,26.97
2018-02-19T21:41:18.151Z,26.77
2018-02-19T21:43:45.617Z,26.10
2018-02-19T21:46:13.080Z,25.45
2018-02-19T21:48:40.547Z,25.03
2018-02-19T21:51:07.990Z,25.67
2018-02-19T21:53:35.817Z,25.08
2018-02-19T21:56:04.094Z,24.00
2018-02-19T21:58:31.511Z,27.20
2018-02-19T22:00:58.951Z,25.43
2018-02-19T22:03:26.546Z,26.10
2018-02-19T22:05:54.001Z,24.17
2018-02-19T22:08:21.467Z,22.43
2018-02-19T22:10:49.126Z,23.90
2018-02-19T22:13:16.557Z,28.80
2018-02-19T22:15:44.450Z,25.33
2018-02-19T22:18:12.002Z,26.80
2018-02-19T22:20:39.557Z,24.10
2018-02-19T22:23:07.017Z,22.53
2018-02-19T22:25:34.555Z,22.73
2018-02-19T22:28:01.997Z,23.40
2018-02-19T22:30:29.462Z,23.12
2018-02-19T22:32:56.913Z,24.37
2018-02-19T22:35:24.338Z,21.33
2018-02-19T22:37:51.765Z,24.63
2018-02-19T22:40:19.221Z,22.53
2018-02-19T22:42:47.645Z,21.10
2018-02-19T22:45:15.218Z,23.50
2018-02-19T22:47:42.688Z,25.40
2018-02-19T22:50:10.472Z,23.00
2018-02-19T22:52:37.897Z,22.53
2018-02-19T22:55:05.330Z,27.60
2018-02-19T22:57:32.781Z,24.48
2018-02-19T23:00:00.244Z,23.57
2018-02-19T23:02:27.691Z,22.47
2018-02-19T23:04:55.836Z,21.30
2018-02-19T23:07:23.324Z,21.67
2018-02-19T23:09:50.782Z,23.77
2018-02-19T23:12:18.215Z,24.70
2018-02-19T23:14:45.739Z,22.73
2018-02-19T23:17:13.227Z,26.67
2018-02-19T23:19:40.829Z,21.00
2018-02-19T23:35:04.961Z,23.97
2018-02-19T23:37:32.526Z,27.87
2018-02-19T23:40:00.048Z,23.50
2018-02-19T23:42:27.516Z,20.70
2018-02-19T23:44:55.982Z,21.20
2018-02-19T23:47:23.450Z,24.13
2018-02-19T23:49:50.907Z,20.40
2018-02-19T23:52:18.403Z,24.17
2018-02-19T23:54:46.098Z,19.73
2018-02-19T23:57:13.793Z,21.33
2018-02-19T23:59:41.442Z,20.43
